Lacona, NY

5:13 AM EDT on August 20, 2014 (GMT -0400)
Db N Ma Consumer Services | Change Station
CLOSE
Current Station
Personal Weather Station
Location: Sandy Creek, NY
Elevation: 499 ft
Nearby Weather Stations

Elev 499 ft 43.64 °N, 76.09 °W | Updated 3 minutes ago

Clear
Clear
63.7 °F
Feels Like 63.7 °F
N
1.6
Wind Variable Wind from NE

Today
High -- | Low -- °F
--% Chance of Precip.
Yesterday
High -- | Low -- °F
Precip. -- in
6:14 AM 7:59 PM
Waning Crescent, 23% visible
Pressure 29.87 in
Visibility 10.0 miles
Clouds Clear
Dew Point 60 °F
Humidity 87%
Rainfall 0.00 in
Snow Depth Not available.
UV 0 out of 12
Pollen 8.80 out of 12
Air Quality Not available.
Flu Activity Not available.
METAR KART 200856Z AUTO 06003KT 10SM CLR 13/11 A2988 RMK AO2 SLP114 T01330106 53003 $

More Conditions Fewer Conditions

Pressure 29.87 in
Visibility 10.0 miles
Clouds Clear
Dew Point 60 °F
Humidity 87%
Rainfall 0.00 in
Snow Depth Not available.
UV 0 out of 12
Pollen 8.80 out of 12
Air Quality Not available.
Flu Activity Not available.
METAR KART 200856Z AUTO 06003KT 10SM CLR 13/11 A2988 RMK AO2 SLP114 T01330106 53003 $

More Conditions Fewer Conditions

10-Day Weather Forecast

Almanac

Astronomy

Aug. 20, 2014 Rise Set
Actual Time 6:14 AM EDT 7:59 PM EDT
Civil Twilight 5:43 AM EDT 8:30 PM EDT
Nautical Twilight 5:06 AM EDT 9:07 PM EDT
Astronomical Twilight 4:26 AM EDT 9:47 PM EDT
Moon 1:49 AM EDT 4:46 PM EDT
Length of Visible Light 14h 46m
Length of Day
13h 45m
Tomorrow will be 2m 44s shorter.
Waning Crescent, 23% of the Moon is Illuminated
Today
Waning Crescent
Aug 25
New
Sep 2
First Quarter
Sep 8
Full
Sep 15
Last Quarter

Today's Extremes

State Highs State Lows

Community

WunderPhotos

Upload Photos

1,745,604 photos uploaded!

Nearby

Air Quality

  Air Quality AQ Index Pollutant
Wednesday Good
OZONE
Wednesday Good
PM2.5

Snow Depth

Station Depth Elevation
No new snow has been reported.

Earthquake Activity

City Distance Mag. Time & Date
No recent earthquake activity has been reported nearby.
Minimum magnitude displayed is 2.5.

Coastal Water Temperatures

Place Temperature
Alexandria Bay, NY 68.0 °F
Ogdensburg, NY 64.9 °F

Nearby Weather Stations